Terminal Aerodrome Forecast
Issued by NWS

Home | Current Version | Previous Version | Text Only | Print | Product List | Glossary On
Versions: 1 2 3 4 5 6 7 8 9 10 11 12
000
FTUS43 KDLH 261500 AAB
TAFBRD
TAF AMD
KBRD 261532Z 2616/2712 36008KT P6SM OVC018
     FM262200 35007KT P6SM SCT015 OVC022
     FM270400 34005KT P6SM SCT020 BKN120=

USA.gov is the U.S. government's official web portal to all federal, state and local government web resources and services.